Nordbaltic — P3QN9 — position and weather

sailwx.info

Track history (hours):
 
Tides and Currents Weather Stations Pressure Air Temp Water Temp Dewpoint Dewpoint Depression Visibility Wind Speed Wind Dir Waves Ship Positions

Nordbaltic

Last reported at 2018-Feb-04 01:00 UTC. Time now 2018-Feb-19 10:09 UTC.
Position N 06°16' E 003°12'.
Warning: this ship's position is 15 days out of date.

Length 207 m; draft 10 m.

Type: Cargo ship. MMSI: 210117000.

Date/timePositionNaut miles runAvg speedWind from/ knotsBaromVisibWave heightAir tempDewpointWater temp
2018-Feb-04 01:00N 06°16' E 003°12'0 0.1
2018-Feb-04 00:30N 06°16' E 003°12'0 0.0
2018-Feb-03 23:51N 06°16' E 003°12'0 0.0
2018-Feb-03 23:06N 06°16' E 003°12'0 0.1
2018-Feb-03 23:00N 06°16' E 003°12'0 0.0
2018-Feb-03 19:36N 06°16' E 003°12'0 0.0
2018-Feb-03 18:30N 06°16' E 003°12'0 0.0
2018-Feb-03 17:54N 06°16' E 003°12'0 0.0
2018-Feb-03 17:30N 06°16' E 003°12'0 0.0
2018-Feb-03 17:00N 06°16' E 003°12'0 0.0
2018-Feb-03 16:00N 06°16' E 003°12'0 0.0
2018-Feb-03 15:30N 06°16' E 003°12'0 0.0
2018-Feb-03 15:00N 06°16' E 003°12'0 0.0
2018-Feb-03 14:30N 06°16' E 003°12'0 0.0
2018-Feb-03 13:45N 06°16' E 003°12'13 0.3
2018-Feb-01 19:25N 06°18' E 003°25'0 0.2
2018-Feb-01 19:00N 06°18' E 003°25'0 0.1
2018-Feb-01 18:09N 06°18' E 003°25'0 0.4
2018-Feb-01 18:00N 06°18' E 003°25'0 0.5
2018-Feb-01 17:30N 06°18' E 003°25'12 5.1
2018-Feb-01 15:14N 06°17' E 003°13'0 0.3
2018-Feb-01 15:00N 06°17' E 003°13'0 0.0
2018-Feb-01 03:35N 06°17' E 003°13'0 0.0
2018-Feb-01 02:29N 06°17' E 003°13'0 0.0
2018-Feb-01 01:59N 06°17' E 003°13'0 0.0
2018-Feb-01 01:29N 06°17' E 003°13'0 0.0
2018-Feb-01 00:41N 06°17' E 003°13'0 0.0
2018-Feb-01 00:29N 06°17' E 003°13'0 0.0
2018-Jan-31 22:56N 06°17' E 003°13'0 0.0
2018-Jan-31 22:26N 06°17' E 003°13'0 0.0
2018-Jan-31 20:59N 06°17' E 003°13'0 0.0
2018-Jan-31 20:29N 06°17' E 003°13'0 0.0
2018-Jan-31 19:56N 06°17' E 003°13'0 0.0
2018-Jan-31 19:26N 06°17' E 003°13'0 0.0
2018-Jan-31 18:56N 06°17' E 003°13'0 0.0
2018-Jan-31 18:26N 06°17' E 003°13'13 0.5
2018-Jan-30 16:52N 06°26' E 003°23'0 0.0
2018-Jan-30 16:14N 06°26' E 003°23'0 0.0
2018-Jan-30 15:58N 06°26' E 003°23'0 0.0
2018-Jan-30 15:23N 06°26' E 003°23'0 0.0
2018-Jan-29 21:22N 06°26' E 003°23'0 0.0
2018-Jan-29 19:59N 06°26' E 003°23'0 0.0
2018-Jan-29 19:11N 06°26' E 003°23'0 0.0
2018-Jan-29 18:58N 06°26' E 003°23'0 0.0
2018-Jan-29 18:30N 06°26' E 003°23'0 0.0
2018-Jan-29 17:58N 06°26' E 003°23'0 0.0
2018-Jan-29 17:30N 06°26' E 003°23'0 0.0
2018-Jan-29 17:00N 06°26' E 003°23'0 0.0
2018-Jan-29 16:24N 06°26' E 003°23'0 0.0
2018-Jan-29 15:42N 06°26' E 003°23'0 0.0
2018-Jan-29 15:28N 06°26' E 003°23'0 0.0
2018-Jan-29 14:33N 06°26' E 003°23'96 7.4
2018-Jan-29 01:29N 05°30' E 002°05'816.8
2018-Jan-29 01:00N 05°28' E 001°57'2317.0
2018-Jan-28 23:40N 05°21' E 001°35'317.5
2018-Jan-28 23:28N 05°20' E 001°32'817.2
2018-Jan-28 23:00N 05°18' E 001°24'917.4
2018-Jan-28 22:30N 05°15' E 001°16'917.4
2018-Jan-28 22:00N 05°13' E 001°07'917.3
2018-Jan-28 21:30N 05°10' E 000°59'917.1
2018-Jan-28 21:00N 05°07' E 000°51'917.1
2018-Jan-28 20:30N 05°04' E 000°43'816.9
2018-Jan-28 20:00N 05°02' E 000°35'816.9
2018-Jan-28 19:30N 05°00' E 000°27'917.0
2018-Jan-28 19:00N 04°58' E 000°18'917.1
2018-Jan-28 18:30N 04°56' E 000°10'816.9
2018-Jan-28 18:00N 04°53' E 000°02'917.6
2018-Jan-28 17:30N 04°51' W 000°06'917.6
2018-Jan-28 17:00N 04°48' W 000°15'917.5
2018-Jan-28 16:30N 04°45' W 000°23'917.5
2018-Jan-28 16:00N 04°43' W 000°32'917.5
2018-Jan-28 15:30N 04°40' W 000°40'917.4
2018-Jan-28 15:00N 04°38' W 000°48'917.4
2018-Jan-28 14:29N 04°35' W 000°57'2117.1
2018-Jan-28 13:16N 04°29' W 001°17'1317.1
2018-Jan-28 12:30N 04°25' W 001°30'75015.2
2018-Jan-26 11:10N 07°16' W 013°44'314.1
2018-Jan-26 10:59N 07°17' W 013°46'914.2
2018-Jan-26 10:19N 07°22' W 013°54'514.3
2018-Jan-26 10:00N 07°24' W 013°58'714.3
2018-Jan-26 09:30N 07°28' W 014°04'814.4
2018-Jan-26 08:55N 07°33' W 014°11'614.2
2018-Jan-26 08:30N 07°37' W 014°16'18014.6
2018-Jan-25 20:11N 09°47' W 016°22'315.2
2018-Jan-25 20:00N 09°49' W 016°24'815.4
2018-Jan-25 19:30N 09°55' W 016°29'815.2
2018-Jan-25 19:00N 10°00' W 016°34'815.4
2018-Jan-25 18:30N 10°06' W 016°39'815.5
2018-Jan-25 18:00N 10°12' W 016°44'815.6
2018-Jan-25 17:30N 10°18' W 016°49'815.2
2018-Jan-25 17:00N 10°24' W 016°54'815.5
2018-Jan-25 16:30N 10°30' W 016°59'816.3
2018-Jan-25 16:00N 10°36' W 017°04'917.1
2018-Jan-25 15:30N 10°43' W 017°10'816.7
2018-Jan-25 15:00N 10°49' W 017°15'816.8
2018-Jan-25 14:30N 10°55' W 017°21'916.7
2018-Jan-25 13:59N 11°02' W 017°27'816.7
2018-Jan-25 13:30N 11°08' W 017°32'816.5
2018-Jan-25 13:00N 11°15' W 017°37'816.4
2018-Jan-25 12:30N 11°21' W 017°42'816.1
2018-Jan-25 12:00N 11°28' W 017°47'816.1
2018-Jan-25 11:30N 11°34' W 017°52'816.0
2018-Jan-25 11:00N 11°41' W 017°57'815.8
2018-Jan-25 10:30N 11°48' W 017°59'916.5
2018-Jan-25 09:56N 11°58' W 017°59'  
Track history (hours):
 
Tides and Currents Weather Stations Pressure Air Temp Water Temp Dewpoint Dewpoint Depression Visibility Wind Speed Wind Dir Waves Ship Positions

Nordbaltic

Last reported at 2018-Feb-04 01:00 UTC. Time now 2018-Feb-19 10:09 UTC.
Position N 06°16' E 003°12'.
Warning: this ship's position is 15 days out of date.

Length 207 m; draft 10 m.

Type: Cargo ship. MMSI: 210117000.

Date/timePositionNaut miles runAvg speedWind from/ knotsBaromVisibWave heightAir tempDewpointWater temp
2018-Feb-04 01:00N 06°16' E 003°12'0 0.1
2018-Feb-04 00:30N 06°16' E 003°12'0 0.0
2018-Feb-03 23:51N 06°16' E 003°12'0 0.0
2018-Feb-03 23:06N 06°16' E 003°12'0 0.1
2018-Feb-03 23:00N 06°16' E 003°12'0 0.0
2018-Feb-03 19:36N 06°16' E 003°12'0 0.0
2018-Feb-03 18:30N 06°16' E 003°12'0 0.0
2018-Feb-03 17:54N 06°16' E 003°12'0 0.0
2018-Feb-03 17:30N 06°16' E 003°12'0 0.0
2018-Feb-03 17:00N 06°16' E 003°12'0 0.0
2018-Feb-03 16:00N 06°16' E 003°12'0 0.0
2018-Feb-03 15:30N 06°16' E 003°12'0 0.0
2018-Feb-03 15:00N 06°16' E 003°12'0 0.0
2018-Feb-03 14:30N 06°16' E 003°12'0 0.0
2018-Feb-03 13:45N 06°16' E 003°12'13 0.3
2018-Feb-01 19:25N 06°18' E 003°25'0 0.2
2018-Feb-01 19:00N 06°18' E 003°25'0 0.1
2018-Feb-01 18:09N 06°18' E 003°25'0 0.4
2018-Feb-01 18:00N 06°18' E 003°25'0 0.5
2018-Feb-01 17:30N 06°18' E 003°25'12 5.1
2018-Feb-01 15:14N 06°17' E 003°13'0 0.3
2018-Feb-01 15:00N 06°17' E 003°13'0 0.0
2018-Feb-01 03:35N 06°17' E 003°13'0 0.0
2018-Feb-01 02:29N 06°17' E 003°13'0 0.0
2018-Feb-01 01:59N 06°17' E 003°13'0 0.0
2018-Feb-01 01:29N 06°17' E 003°13'0 0.0
2018-Feb-01 00:41N 06°17' E 003°13'0 0.0
2018-Feb-01 00:29N 06°17' E 003°13'0 0.0
2018-Jan-31 22:56N 06°17' E 003°13'0 0.0
2018-Jan-31 22:26N 06°17' E 003°13'0 0.0
2018-Jan-31 20:59N 06°17' E 003°13'0 0.0
2018-Jan-31 20:29N 06°17' E 003°13'0 0.0
2018-Jan-31 19:56N 06°17' E 003°13'0 0.0
2018-Jan-31 19:26N 06°17' E 003°13'0 0.0
2018-Jan-31 18:56N 06°17' E 003°13'0 0.0
2018-Jan-31 18:26N 06°17' E 003°13'13 0.5
2018-Jan-30 16:52N 06°26' E 003°23'0 0.0
2018-Jan-30 16:14N 06°26' E 003°23'0 0.0
2018-Jan-30 15:58N 06°26' E 003°23'0 0.0
2018-Jan-30 15:23N 06°26' E 003°23'0 0.0
2018-Jan-29 21:22N 06°26' E 003°23'0 0.0
2018-Jan-29 19:59N 06°26' E 003°23'0 0.0
2018-Jan-29 19:11N 06°26' E 003°23'0 0.0
2018-Jan-29 18:58N 06°26' E 003°23'0 0.0
2018-Jan-29 18:30N 06°26' E 003°23'0 0.0
2018-Jan-29 17:58N 06°26' E 003°23'0 0.0
2018-Jan-29 17:30N 06°26' E 003°23'0 0.0
2018-Jan-29 17:00N 06°26' E 003°23'0 0.0
2018-Jan-29 16:24N 06°26' E 003°23'0 0.0
2018-Jan-29 15:42N 06°26' E 003°23'0 0.0
2018-Jan-29 15:28N 06°26' E 003°23'0 0.0
2018-Jan-29 14:33N 06°26' E 003°23'96 7.4
2018-Jan-29 01:29N 05°30' E 002°05'816.8
2018-Jan-29 01:00N 05°28' E 001°57'2317.0
2018-Jan-28 23:40N 05°21' E 001°35'317.5
2018-Jan-28 23:28N 05°20' E 001°32'817.2
2018-Jan-28 23:00N 05°18' E 001°24'917.4
2018-Jan-28 22:30N 05°15' E 001°16'917.4
2018-Jan-28 22:00N 05°13' E 001°07'917.3
2018-Jan-28 21:30N 05°10' E 000°59'917.1
2018-Jan-28 21:00N 05°07' E 000°51'917.1
2018-Jan-28 20:30N 05°04' E 000°43'816.9
2018-Jan-28 20:00N 05°02' E 000°35'816.9
2018-Jan-28 19:30N 05°00' E 000°27'917.0
2018-Jan-28 19:00N 04°58' E 000°18'917.1
2018-Jan-28 18:30N 04°56' E 000°10'816.9
2018-Jan-28 18:00N 04°53' E 000°02'917.6
2018-Jan-28 17:30N 04°51' W 000°06'917.6
2018-Jan-28 17:00N 04°48' W 000°15'917.5
2018-Jan-28 16:30N 04°45' W 000°23'917.5
2018-Jan-28 16:00N 04°43' W 000°32'917.5
2018-Jan-28 15:30N 04°40' W 000°40'917.4
2018-Jan-28 15:00N 04°38' W 000°48'917.4
2018-Jan-28 14:29N 04°35' W 000°57'2117.1
2018-Jan-28 13:16N 04°29' W 001°17'1317.1
2018-Jan-28 12:30N 04°25' W 001°30'75015.2
2018-Jan-26 11:10N 07°16' W 013°44'314.1
2018-Jan-26 10:59N 07°17' W 013°46'914.2
2018-Jan-26 10:19N 07°22' W 013°54'514.3
2018-Jan-26 10:00N 07°24' W 013°58'714.3
2018-Jan-26 09:30N 07°28' W 014°04'814.4
2018-Jan-26 08:55N 07°33' W 014°11'614.2
2018-Jan-26 08:30N 07°37' W 014°16'18014.6
2018-Jan-25 20:11N 09°47' W 016°22'315.2
2018-Jan-25 20:00N 09°49' W 016°24'815.4
2018-Jan-25 19:30N 09°55' W 016°29'815.2
2018-Jan-25 19:00N 10°00' W 016°34'815.4
2018-Jan-25 18:30N 10°06' W 016°39'815.5
2018-Jan-25 18:00N 10°12' W 016°44'815.6
2018-Jan-25 17:30N 10°18' W 016°49'815.2
2018-Jan-25 17:00N 10°24' W 016°54'815.5
2018-Jan-25 16:30N 10°30' W 016°59'816.3
2018-Jan-25 16:00N 10°36' W 017°04'917.1
2018-Jan-25 15:30N 10°43' W 017°10'816.7
2018-Jan-25 15:00N 10°49' W 017°15'816.8
2018-Jan-25 14:30N 10°55' W 017°21'916.7
2018-Jan-25 13:59N 11°02' W 017°27'816.7
2018-Jan-25 13:30N 11°08' W 017°32'816.5
2018-Jan-25 13:00N 11°15' W 017°37'816.4
2018-Jan-25 12:30N 11°21' W 017°42'816.1
2018-Jan-25 12:00N 11°28' W 017°47'816.1
2018-Jan-25 11:30N 11°34' W 017°52'816.0
2018-Jan-25 11:00N 11°41' W 017°57'815.8
2018-Jan-25 10:30N 11°48' W 017°59'916.5
2018-Jan-25 09:56N 11°58' W 017°59'  

Dump ship's entire track history